Time;durP1;ratioP1;P1;durP2;ratioP2;P2;SDS_P1;SDS_P2;PMS_P1;PMS_P2;Temp;Humidity;BMP_temperature;BMP_pressure;BME280_temperature;BME280_humidity;BME280_pressure;Samples;Min_cycle;Max_cycle;Signal;HPM_P1;HPM_P2
2021/12/19 00:00:02;;;;;;;6.40;2.80;;;6.80;99.90;;;;;;6289598;22;20023;-86
2021/12/19 00:02:44;;;;;;;3.13;1.75;;;6.80;99.90;;;;;;6289429;22;20421;-86
2021/12/19 00:10:22;;;;;;;1.05;0.85;;;6.70;99.90;;;;;;6314813;22;20019;-86
2021/12/19 00:12:48;;;;;;;0.60;0.55;;;6.80;99.90;;;;;;6289064;22;20099;-86
2021/12/19 00:15:14;;;;;;;1.00;0.65;;;6.80;99.90;;;;;;6288630;22;20083;-86
2021/12/19 00:17:40;;;;;;;0.50;0.50;;;6.80;99.90;;;;;;6288476;22;20016;-86
2021/12/19 00:20:06;;;;;;;1.00;0.63;;;6.80;99.90;;;;;;6314353;22;20048;-86
2021/12/19 00:22:32;;;;;;;0.95;0.68;;;6.80;99.90;;;;;;6288391;22;20100;-86
2021/12/19 00:24:58;;;;;;;0.40;0.38;;;6.80;99.90;;;;;;6288581;22;20024;-86
2021/12/19 00:27:23;;;;;;;1.00;0.80;;;6.90;99.90;;;;;;6288366;22;20020;-86
2021/12/19 00:29:49;;;;;;;1.42;0.95;;;6.90;99.90;;;;;;6287868;22;20069;-86
2021/12/19 00:32:14;;;;;;;1.92;1.23;;;6.90;99.90;;;;;;6287782;22;20482;-86
2021/12/19 00:34:40;;;;;;;2.35;0.95;;;6.90;99.90;;;;;;6288370;22;20508;-86
2021/12/19 00:37:05;;;;;;;2.33;0.68;;;6.90;99.90;;;;;;6311391;22;20027;-86
2021/12/19 00:39:32;;;;;;;1.90;0.95;;;6.90;99.90;;;;;;6314050;22;20027;-85
2021/12/19 00:41:58;;;;;;;2.88;1.20;;;6.90;99.90;;;;;;6288215;22;20021;-86
2021/12/19 00:44:25;;;;;;;1.55;0.98;;;6.90;99.90;;;;;;6313802;22;20327;-86
2021/12/19 00:47:03;;;;;;;1.92;1.33;;;6.90;99.90;;;;;;6260468;22;20100;-86
2021/12/19 00:49:30;;;;;;;0.90;0.75;;;6.90;99.90;;;;;;6312276;22;20054;-87
2021/12/19 00:51:55;;;;;;;1.67;0.93;;;6.90;99.90;;;;;;6312027;22;20020;-86
2021/12/19 00:54:21;;;;;;;2.83;0.73;;;6.90;99.90;;;;;;6288477;22;20009;-86
2021/12/19 00:56:48;;;;;;;2.35;1.55;;;6.90;99.90;;;;;;6261608;22;20016;-86
2021/12/19 00:59:16;;;;;;;1.73;0.80;;;6.90;99.90;;;;;;6288854;22;20051;-86
2021/12/19 01:01:43;;;;;;;2.88;0.85;;;6.90;99.90;;;;;;6288912;22;20016;-86
2021/12/19 01:04:14;;;;;;;0.60;0.55;;;6.90;99.90;;;;;;6287835;22;20460;-86
2021/12/19 01:06:41;;;;;;;1.70;1.13;;;6.90;99.90;;;;;;6287789;22;20013;-86
2021/12/19 01:09:07;;;;;;;1.70;0.63;;;6.90;99.90;;;;;;6157505;22;20099;-86
2021/12/19 01:11:34;;;;;;;1.23;0.90;;;6.90;99.90;;;;;;6314305;22;20009;-86
2021/12/19 01:14:00;;;;;;;1.50;0.98;;;7.00;99.90;;;;;;6157842;22;20065;-86
2021/12/19 01:16:26;;;;;;;0.45;0.38;;;7.00;99.90;;;;;;6288086;22;20450;-86
2021/12/19 01:18:52;;;;;;;2.60;1.35;;;7.00;99.90;;;;;;6316037;22;20450;-86
2021/12/19 01:21:18;;;;;;;1.08;0.52;;;7.00;99.90;;;;;;6290701;22;20017;-86
2021/12/19 01:23:44;;;;;;;2.58;1.10;;;6.90;99.90;;;;;;6290487;22;20107;-86
2021/12/19 01:26:10;;;;;;;1.60;0.93;;;6.90;99.90;;;;;;6289937;22;20442;-86
2021/12/19 01:28:36;;;;;;;3.28;1.17;;;7.00;99.90;;;;;;6317343;22;20052;-85
2021/12/19 01:31:03;;;;;;;0.50;0.50;;;7.00;99.90;;;;;;6315863;22;20130;-86
2021/12/19 01:33:29;;;;;;;1.50;0.98;;;7.00;99.90;;;;;;6290525;22;20009;-86
2021/12/19 01:35:54;;;;;;;1.40;0.75;;;6.90;99.90;;;;;;6290324;22;20539;-86
2021/12/19 01:38:20;;;;;;;1.73;1.13;;;7.00;99.90;;;;;;6290090;22;20074;-86
2021/12/19 01:40:45;;;;;;;3.55;1.25;;;7.00;99.90;;;;;;6159580;23;20096;-86
2021/12/19 01:43:11;;;;;;;1.10;0.65;;;7.00;99.90;;;;;;6290271;22;20044;-86
2021/12/19 01:45:39;;;;;;;1.83;1.00;;;7.00;99.90;;;;;;6290863;22;20024;-86
2021/12/19 01:48:13;;;;;;;0.47;0.40;;;7.40;99.90;;;;;;6289759;22;20021;-86
2021/12/19 01:50:41;;;;;;;2.20;1.02;;;7.00;99.90;;;;;;6290637;22;20019;-86
2021/12/19 01:53:11;;;;;;;1.00;0.77;;;7.00;99.90;;;;;;6315944;22;20460;-86
2021/12/19 01:55:37;;;;;;;1.35;0.70;;;7.00;99.90;;;;;;6290474;22;20013;-86
2021/12/19 01:58:03;;;;;;;1.42;0.90;;;6.90;99.90;;;;;;6159337;22;20070;-86
2021/12/19 02:00:34;;;;;;;1.55;0.85;;;6.90;99.90;;;;;;6159495;22;20361;-86
2021/12/19 02:03:00;;;;;;;1.60;0.88;;;6.90;99.90;;;;;;6316155;22;20017;-86
2021/12/19 02:05:27;;;;;;;0.38;0.38;;;6.90;99.90;;;;;;6289762;22;20017;-86
2021/12/19 02:07:54;;;;;;;2.15;0.90;;;6.90;99.90;;;;;;6289676;22;20357;-86
2021/12/19 02:10:23;;;;;;;0.90;0.50;;;6.90;99.90;;;;;;6289942;22;20023;-86
2021/12/19 02:12:50;;;;;;;1.17;0.73;;;6.90;99.90;;;;;;6290013;22;20022;-86
2021/12/19 02:15:21;;;;;;;0.93;0.50;;;6.80;99.90;;;;;;6290573;22;20016;-86
2021/12/19 02:17:50;;;;;;;0.60;0.45;;;6.80;99.90;;;;;;6290410;22;20322;-86
2021/12/19 02:20:17;;;;;;;0.40;0.40;;;6.80;99.90;;;;;;6289611;22;20096;-86
2021/12/19 02:22:44;;;;;;;0.63;0.50;;;6.80;99.90;;;;;;6289359;22;20469;-86
2021/12/19 02:25:10;;;;;;;0.63;0.43;;;6.80;99.90;;;;;;6289852;22;20017;-86
2021/12/19 02:27:37;;;;;;;1.20;0.88;;;6.80;99.90;;;;;;6159371;22;20038;-86
2021/12/19 02:30:07;;;;;;;0.40;0.40;;;6.80;99.90;;;;;;6315773;22;20064;-86
2021/12/19 02:32:34;;;;;;;1.15;0.95;;;6.80;99.90;;;;;;6290497;22;20017;-86
2021/12/19 02:35:04;;;;;;;0.45;0.45;;;6.80;99.90;;;;;;6290336;22;20013;-86
2021/12/19 02:48:16;;;;;;;1.35;0.50;;;6.80;99.90;;;;;;6172603;22;20025;-86
2021/12/19 02:50:50;;;;;;;0.80;0.43;;;6.80;99.90;;;;;;6289876;22;20087;-86
2021/12/19 02:53:26;;;;;;;0.43;0.40;;;6.80;99.90;;;;;;6290113;22;20019;-86
2021/12/19 02:55:51;;;;;;;0.63;0.60;;;6.80;99.90;;;;;;6289345;22;20088;-86
2021/12/19 02:58:17;;;;;;;0.50;0.45;;;6.80;99.90;;;;;;6290028;22;20044;-86
2021/12/19 03:00:46;;;;;;;0.30;0.30;;;6.70;99.90;;;;;;6289916;22;20248;-86
2021/12/19 03:03:11;;;;;;;0.45;0.43;;;6.80;99.90;;;;;;6289363;22;20323;-86
2021/12/19 03:05:37;;;;;;;0.45;0.40;;;6.80;99.90;;;;;;6290155;22;20101;-86
2021/12/19 03:08:03;;;;;;;0.82;0.52;;;6.80;99.90;;;;;;6289067;22;20016;-86
2021/12/19 03:18:30;;;;;;;0.82;0.63;;;6.80;99.90;;;;;;6315999;22;20024;-86
2021/12/19 03:20:55;;;;;;;0.95;0.60;;;6.80;99.90;;;;;;6289578;22;20025;-86
2021/12/19 03:23:22;;;;;;;1.50;0.60;;;6.80;99.90;;;;;;6289388;22;20024;-86
2021/12/19 03:25:48;;;;;;;0.63;0.60;;;6.80;99.90;;;;;;6315384;22;20028;-86
2021/12/19 03:28:14;;;;;;;0.50;0.50;;;6.80;99.90;;;;;;6289046;22;20350;-86
2021/12/19 03:30:42;;;;;;;1.08;0.65;;;6.80;99.90;;;;;;6289395;22;20356;-86
2021/12/19 03:33:07;;;;;;;2.38;0.65;;;6.80;99.90;;;;;;6289702;22;20017;-86
2021/12/19 03:35:33;;;;;;;0.52;0.45;;;6.80;99.90;;;;;;6289956;22;20013;-86
2021/12/19 03:38:03;;;;;;;0.55;0.50;;;6.80;99.90;;;;;;6263137;22;20016;-86
2021/12/19 03:40:35;;;;;;;0.63;0.50;;;6.80;99.90;;;;;;6289633;22;20035;-86
2021/12/19 03:43:06;;;;;;;1.40;0.40;;;6.70;99.90;;;;;;6143248;23;20346;-86
2021/12/19 03:45:32;;;;;;;1.63;0.43;;;6.70;99.90;;;;;;6255470;22;20017;-86
2021/12/19 03:47:58;;;;;;;1.08;0.57;;;6.70;99.90;;;;;;6289527;22;20358;-86
2021/12/19 03:50:24;;;;;;;1.25;0.82;;;6.70;99.90;;;;;;6289028;22;20013;-86
2021/12/19 03:52:51;;;;;;;0.60;0.52;;;6.70;99.90;;;;;;6289193;22;20024;-86
2021/12/19 03:55:18;;;;;;;1.73;0.98;;;6.60;99.90;;;;;;6289883;22;20013;-86
2021/12/19 03:57:44;;;;;;;0.68;0.55;;;6.60;99.90;;;;;;6289300;22;20022;-86
2021/12/19 04:00:13;;;;;;;1.88;1.17;;;6.50;99.90;;;;;;6289587;22;20342;-85
2021/12/19 04:02:39;;;;;;;2.08;0.80;;;6.40;99.90;;;;;;6288941;22;20031;-86
2021/12/19 04:05:05;;;;;;;1.55;0.93;;;6.40;99.90;;;;;;6288894;22;20020;-86
2021/12/19 04:07:30;;;;;;;2.95;0.90;;;6.30;99.90;;;;;;6289157;22;20476;-86
2021/12/19 04:09:56;;;;;;;2.55;0.80;;;6.30;99.90;;;;;;6288809;22;20016;-86
2021/12/19 04:12:25;;;;;;;0.70;0.30;;;6.30;99.90;;;;;;6289171;22;20013;-86
2021/12/19 04:14:51;;;;;;;0.68;0.40;;;6.30;99.90;;;;;;6289116;22;20084;-86
2021/12/19 04:17:16;;;;;;;0.82;0.60;;;6.30;99.90;;;;;;6288883;22;20016;-86
2021/12/19 04:19:42;;;;;;;0.95;0.55;;;6.30;99.90;;;;;;6288978;22;20020;-86
2021/12/19 04:22:07;;;;;;;0.40;0.40;;;6.30;99.90;;;;;;6288791;22;20017;-86
2021/12/19 04:24:33;;;;;;;4.43;0.80;;;6.30;99.90;;;;;;6288843;22;20017;-86
2021/12/19 04:26:58;;;;;;;0.52;0.45;;;6.30;99.90;;;;;;6288328;22;20088;-86
2021/12/19 04:29:25;;;;;;;2.25;0.60;;;6.40;99.90;;;;;;6288913;22;20017;-86
2021/12/19 04:31:54;;;;;;;0.65;0.50;;;6.30;99.90;;;;;;6158806;22;20346;-86
2021/12/19 04:34:21;;;;;;;0.30;0.30;;;6.30;99.90;;;;;;6288949;22;20040;-86
2021/12/19 04:36:52;;;;;;;0.82;0.50;;;6.30;99.90;;;;;;6314907;22;20457;-86
2021/12/19 04:39:35;;;;;;;0.40;0.40;;;6.30;99.90;;;;;;6158946;22;20024;-86
2021/12/19 04:55:44;;;;;;;0.30;0.30;;;6.40;99.90;;;;;;6315326;22;20027;-85
2021/12/19 04:58:46;;;;;;;1.85;0.45;;;6.40;99.90;;;;;;6313249;22;20024;-86
2021/12/19 05:03:50;;;;;;;0.20;0.20;;;6.30;99.90;;;;;;6183120;23;20066;-86
2021/12/19 05:16:41;;;;;;;0.30;0.30;;;6.20;99.90;;;;;;6314357;22;20529;-86
2021/12/19 05:21:50;;;;;;;0.50;0.50;;;6.20;99.90;;;;;;6314887;22;20025;-85
2021/12/19 05:24:45;;;;;;;0.20;0.20;;;6.20;99.90;;;;;;6288502;22;20023;-86
2021/12/19 05:27:06;;;;;;;0.40;0.30;;;6.20;99.90;;;;;;6313293;22;20059;-86
2021/12/19 05:29:32;;;;;;;0.20;0.20;;;6.10;99.90;;;;;;6288187;22;20013;-85
2021/12/19 05:31:58;;;;;;;0.20;0.20;;;6.20;99.90;;;;;;6288262;22;20021;-86
2021/12/19 05:34:25;;;;;;;0.40;0.38;;;6.20;99.90;;;;;;6288515;22;20020;-85
2021/12/19 05:45:13;;;;;;;0.30;0.30;;;6.20;99.90;;;;;;6172965;22;20069;-86
2021/12/19 05:47:40;;;;;;;0.30;0.30;;;6.20;99.90;;;;;;6290440;22;20020;-86
2021/12/19 05:50:06;;;;;;;0.30;0.30;;;6.30;99.90;;;;;;6290224;22;20023;-86
2021/12/19 05:52:32;;;;;;;1.38;0.40;;;6.30;99.90;;;;;;6290227;22;20092;-85
2021/12/19 05:54:58;;;;;;;0.82;0.82;;;6.20;99.90;;;;;;6159408;23;20044;-86
2021/12/19 05:57:23;;;;;;;0.40;0.40;;;6.20;99.90;;;;;;6159480;23;20075;-86
2021/12/19 05:59:50;;;;;;;0.30;0.30;;;6.30;99.90;;;;;;6159460;23;20469;-85
2021/12/19 06:02:17;;;;;;;0.30;0.30;;;6.30;99.90;;;;;;6159834;23;20077;-86
2021/12/19 06:04:42;;;;;;;0.30;0.30;;;6.30;99.90;;;;;;6159544;23;20138;-86
2021/12/19 06:07:08;;;;;;;3.65;0.60;;;6.30;99.90;;;;;;6159317;22;20058;-86
2021/12/19 06:09:34;;;;;;;0.30;0.30;;;6.30;99.90;;;;;;6159720;23;20017;-86
2021/12/19 06:11:59;;;;;;;0.75;0.60;;;6.30;99.90;;;;;;6211015;22;20020;-86
2021/12/19 06:14:31;;;;;;;0.63;0.50;;;6.30;99.90;;;;;;6290120;22;20012;-86
2021/12/19 06:16:57;;;;;;;3.08;1.33;;;6.30;99.90;;;;;;6290251;22;20020;-86
2021/12/19 06:19:22;;;;;;;1.02;0.50;;;6.30;99.90;;;;;;6290479;22;20384;-86
2021/12/19 06:21:48;;;;;;;0.90;0.68;;;6.30;99.90;;;;;;6289993;22;20446;-86
2021/12/19 06:24:13;;;;;;;2.67;0.82;;;6.30;99.90;;;;;;6289794;22;20016;-86
2021/12/19 06:26:39;;;;;;;1.60;0.77;;;6.30;99.90;;;;;;6290204;22;20054;-86
2021/12/19 06:29:06;;;;;;;1.30;0.80;;;6.30;99.90;;;;;;6289754;22;20013;-86
2021/12/19 06:31:32;;;;;;;0.50;0.40;;;6.40;99.90;;;;;;6289836;22;20017;-86
2021/12/19 06:33:57;;;;;;;2.13;1.08;;;6.40;99.90;;;;;;6290234;22;20061;-86
2021/12/19 06:36:23;;;;;;;5.78;1.73;;;6.40;99.90;;;;;;6263599;22;20017;-86
2021/12/19 06:38:49;;;;;;;3.47;1.55;;;6.40;99.90;;;;;;6289735;22;20392;-86
2021/12/19 06:41:14;;;;;;;6.82;1.92;;;6.40;99.90;;;;;;6290265;22;20017;-86
2021/12/19 06:43:40;;;;;;;7.35;3.88;;;6.40;99.90;;;;;;6289679;22;20025;-86
2021/12/19 06:46:05;;;;;;;4.70;1.83;;;6.40;99.90;;;;;;6316044;22;20469;-86
2021/12/19 06:48:31;;;;;;;10.27;2.20;;;6.50;99.90;;;;;;6289158;22;20113;-86
2021/12/19 06:50:57;;;;;;;2.72;1.10;;;6.50;99.90;;;;;;6315786;22;20077;-86
2021/12/19 06:53:23;;;;;;;4.80;1.85;;;6.50;99.90;;;;;;6289776;22;20446;-86
2021/12/19 06:55:49;;;;;;;2.85;1.10;;;6.90;99.90;;;;;;6290174;22;20062;-86
2021/12/19 06:58:14;;;;;;;1.23;0.95;;;6.50;99.90;;;;;;6289470;22;20048;-86
2021/12/19 07:00:40;;;;;;;1.95;0.80;;;6.50;99.90;;;;;;6289564;22;20028;-86
2021/12/19 07:03:06;;;;;;;4.03;1.25;;;6.50;99.90;;;;;;6289756;22;20020;-86
2021/12/19 07:05:31;;;;;;;4.28;1.17;;;6.50;99.90;;;;;;6289708;22;20056;-86
2021/12/19 07:07:57;;;;;;;4.78;2.22;;;6.50;99.90;;;;;;6289795;22;20012;-86
2021/12/19 07:10:23;;;;;;;3.85;1.08;;;6.50;99.90;;;;;;6289428;22;20013;-86
2021/12/19 07:12:49;;;;;;;4.05;2.00;;;6.50;99.90;;;;;;6159289;23;20013;-86
2021/12/19 07:15:15;;;;;;;3.42;1.27;;;6.50;99.90;;;;;;6290087;22;20005;-86
2021/12/19 07:17:40;;;;;;;6.40;1.85;;;6.50;99.90;;;;;;6289270;22;20017;-86
2021/12/19 07:20:07;;;;;;;7.35;2.33;;;6.50;99.90;;;;;;6289234;22;20066;-85
2021/12/19 07:22:33;;;;;;;5.57;1.27;;;6.50;99.90;;;;;;6289647;22;20027;-86
2021/12/19 07:24:58;;;;;;;5.88;0.75;;;6.50;99.90;;;;;;6315965;22;20374;-86
2021/12/19 07:27:24;;;;;;;3.03;1.27;;;6.50;99.90;;;;;;6314749;22;20016;-86
2021/12/19 07:29:49;;;;;;;3.70;1.00;;;6.60;99.90;;;;;;6289356;22;20013;-86
2021/12/19 07:32:15;;;;;;;3.97;1.58;;;6.60;99.90;;;;;;6289053;22;20016;-85
2021/12/19 07:34:42;;;;;;;19.20;2.50;;;6.60;99.90;;;;;;6159039;22;20009;-87
2021/12/19 07:37:08;;;;;;;1.55;0.77;;;6.50;99.90;;;;;;6183508;22;20059;-86
2021/12/19 07:42:04;;;;;;;16.88;2.25;;;6.60;99.90;;;;;;6314962;22;20021;-86
2021/12/19 07:44:29;;;;;;;11.98;1.92;;;6.50;99.90;;;;;;6289332;22;20017;-86
2021/12/19 07:46:55;;;;;;;5.60;1.63;;;6.60;99.90;;;;;;6288707;22;20477;-86
2021/12/19 07:49:20;;;;;;;2.08;1.15;;;6.50;99.90;;;;;;6289540;22;20438;-86
2021/12/19 07:51:46;;;;;;;1.55;0.70;;;6.50;99.90;;;;;;6315065;22;20017;-86
2021/12/19 07:54:11;;;;;;;5.85;1.75;;;6.50;99.90;;;;;;6289111;22;20005;-86
2021/12/19 07:56:37;;;;;;;1.65;0.65;;;6.50;99.90;;;;;;6314768;22;20021;-86
2021/12/19 07:59:03;;;;;;;23.33;3.20;;;6.50;99.90;;;;;;6158406;22;20095;-86
2021/12/19 08:01:28;;;;;;;5.93;2.28;;;6.50;99.90;;;;;;6289018;22;20028;-86
2021/12/19 08:03:54;;;;;;;0.95;0.43;;;6.50;99.90;;;;;;6288792;22;20073;-86
2021/12/19 08:06:19;;;;;;;2.22;1.08;;;6.50;99.90;;;;;;6288541;22;20026;-86
2021/12/19 08:08:50;;;;;;;8.30;1.73;;;6.50;99.90;;;;;;6288995;22;20522;-86
2021/12/19 08:14:00;;;;;;;10.32;2.47;;;6.50;99.90;;;;;;6171611;22;20024;-86
2021/12/19 08:16:26;;;;;;;0.70;0.63;;;6.50;99.90;;;;;;6288657;22;20392;-86
2021/12/19 08:18:52;;;;;;;0.38;0.38;;;6.50;99.90;;;;;;6289060;22;20024;-86
2021/12/19 08:21:19;;;;;;;0.82;0.65;;;6.60;99.90;;;;;;6288927;22;20366;-86
2021/12/19 08:23:44;;;;;;;0.30;0.30;;;6.50;99.90;;;;;;6288928;22;20020;-86
2021/12/19 08:26:10;;;;;;;1.10;0.68;;;6.50;99.90;;;;;;6288430;22;20023;-86
2021/12/19 08:28:36;;;;;;;4.35;1.65;;;6.50;99.90;;;;;;6288849;22;20275;-86
2021/12/19 08:31:02;;;;;;;3.72;0.80;;;6.50;99.90;;;;;;6314739;22;20009;-86
2021/12/19 08:33:28;;;;;;;3.10;2.13;;;6.60;99.90;;;;;;6315867;22;20017;-86
2021/12/19 08:35:54;;;;;;;3.65;1.40;;;6.60;99.90;;;;;;6288779;22;20458;-86
2021/12/19 08:38:19;;;;;;;2.35;0.90;;;6.60;99.90;;;;;;6289131;22;20023;-86
2021/12/19 08:40:46;;;;;;;0.30;0.30;;;6.60;99.90;;;;;;6288780;22;20013;-86
2021/12/19 08:43:12;;;;;;;5.40;1.25;;;6.60;99.90;;;;;;6288703;22;20097;-86
2021/12/19 08:45:37;;;;;;;0.30;0.30;;;6.60;99.90;;;;;;6288730;22;20020;-86
2021/12/19 08:48:04;;;;;;;2.53;0.88;;;6.70;99.90;;;;;;6288228;22;20013;-86
2021/12/19 08:50:30;;;;;;;1.95;0.82;;;6.60;99.90;;;;;;6158737;22;20063;-86
2021/12/19 08:52:56;;;;;;;1.85;0.63;;;6.60;99.90;;;;;;6158903;22;20108;-86
2021/12/19 08:55:22;;;;;;;0.20;0.20;;;6.60;99.90;;;;;;6314731;22;20481;-86
2021/12/19 08:57:48;;;;;;;1.20;0.75;;;6.60;99.90;;;;;;6288810;22;20350;-85
2021/12/19 09:00:14;;;;;;;1.50;0.77;;;6.70;99.90;;;;;;6315090;22;20021;-86
2021/12/19 09:02:43;;;;;;;7.65;2.97;;;6.70;99.90;;;;;;6287844;22;20013;-86
2021/12/19 09:05:09;;;;;;;2.70;1.15;;;6.70;99.90;;;;;;6288950;22;20024;-86
2021/12/19 09:07:35;;;;;;;3.70;0.77;;;6.70;99.90;;;;;;6288588;22;20012;-86
2021/12/19 09:10:02;;;;;;;0.50;0.50;;;6.70;99.90;;;;;;6158440;22;20013;-86
2021/12/19 09:12:28;;;;;;;1.23;0.70;;;6.70;99.90;;;;;;6159311;22;20062;-86
2021/12/19 09:14:54;;;;;;;1.23;0.93;;;6.70;99.90;;;;;;6290334;22;20012;-86
2021/12/19 09:17:19;;;;;;;5.50;1.08;;;6.70;99.90;;;;;;6316298;22;20028;-86
2021/12/19 09:19:45;;;;;;;4.40;0.98;;;6.80;99.90;;;;;;6290957;22;20017;-86
2021/12/19 09:22:12;;;;;;;0.28;0.28;;;6.70;99.90;;;;;;6159525;22;20013;-86
2021/12/19 09:24:37;;;;;;;2.40;0.75;;;6.70;99.90;;;;;;6290164;22;20028;-86
2021/12/19 09:27:04;;;;;;;0.40;0.40;;;6.70;99.90;;;;;;6289994;22;20017;-86
2021/12/19 09:29:30;;;;;;;1.20;0.60;;;7.40;99.90;;;;;;6290033;22;20040;-86
2021/12/19 09:31:57;;;;;;;0.65;0.60;;;6.80;99.90;;;;;;6290215;22;20020;-86
2021/12/19 09:34:24;;;;;;;1.83;1.00;;;6.80;99.90;;;;;;6290135;22;20017;-86
2021/12/19 09:36:49;;;;;;;2.28;0.73;;;6.80;99.90;;;;;;6289748;22;20013;-86
2021/12/19 09:39:15;;;;;;;2.58;0.60;;;6.80;99.90;;;;;;6290096;22;20398;-86
2021/12/19 09:41:44;;;;;;;1.95;0.40;;;6.80;99.90;;;;;;6290219;22;20017;-86
2021/12/19 09:44:15;;;;;;;0.50;0.47;;;6.80;99.90;;;;;;6290265;22;20016;-86
2021/12/19 09:46:43;;;;;;;1.20;0.73;;;6.80;99.90;;;;;;6316496;22;20044;-86
2021/12/19 09:49:12;;;;;;;6.63;1.17;;;6.80;99.90;;;;;;6290052;22;20048;-86
2021/12/19 09:51:37;;;;;;;3.85;1.50;;;6.80;99.90;;;;;;6289886;22;20013;-86
2021/12/19 09:54:05;;;;;;;9.63;2.25;;;6.90;99.90;;;;;;6315500;22;20080;-86
2021/12/19 09:56:33;;;;;;;6.28;1.83;;;6.80;99.90;;;;;;6289606;22;20449;-86
2021/12/19 09:59:00;;;;;;;1.02;0.55;;;6.90;99.90;;;;;;6289768;22;20448;-86
2021/12/19 10:01:26;;;;;;;1.75;0.73;;;6.90;99.90;;;;;;6159511;22;20013;-86
2021/12/19 10:03:52;;;;;;;0.98;0.65;;;7.00;99.90;;;;;;6289874;22;20017;-86
2021/12/19 10:06:20;;;;;;;1.05;0.50;;;6.90;99.90;;;;;;6289331;22;20073;-86
2021/12/19 10:08:49;;;;;;;1.58;1.23;;;7.00;99.90;;;;;;6159424;22;20330;-86
2021/12/19 10:11:32;;;;;;;3.65;0.75;;;7.00;99.90;;;;;;6159359;22;20016;-86
2021/12/19 10:13:59;;;;;;;5.22;0.75;;;7.00;99.90;;;;;;6290120;22;20071;-86
2021/12/19 10:16:28;;;;;;;3.92;0.90;;;7.00;99.90;;;;;;6289111;22;20017;-86
2021/12/19 10:19:00;;;;;;;2.15;0.75;;;7.00;99.90;;;;;;6288840;22;20392;-86
2021/12/19 10:21:27;;;;;;;0.47;0.38;;;7.00;99.90;;;;;;6313456;22;20020;-86
2021/12/19 10:23:59;;;;;;;0.38;0.30;;;7.00;99.90;;;;;;6287396;22;20020;-86
2021/12/19 10:26:38;;;;;;;0.80;0.80;;;7.00;99.90;;;;;;6287594;22;20009;-86
2021/12/19 10:29:03;;;;;;;1.00;0.50;;;7.10;99.90;;;;;;6290320;22;20012;-86
2021/12/19 10:31:29;;;;;;;0.73;0.73;;;7.10;99.90;;;;;;6289717;22;20088;-86
2021/12/19 10:33:55;;;;;;;0.93;0.82;;;7.00;99.90;;;;;;6159341;22;20062;-86
2021/12/19 10:36:21;;;;;;;0.40;0.40;;;7.10;99.90;;;;;;6289534;22;20009;-86
2021/12/19 10:38:52;;;;;;;15.45;0.80;;;7.10;99.90;;;;;;6315770;22;20507;-86
2021/12/19 10:41:30;;;;;;;3.05;1.27;;;7.10;99.90;;;;;;6289873;22;20060;-86
2021/12/19 10:45:29;;;;;;;4.75;1.52;;;7.10;99.90;;;;;;6289727;22;20017;-86
2021/12/19 10:46:54;;;;;;;0.65;0.50;;;7.20;99.90;;;;;;6314221;22;20021;-86
2021/12/19 10:49:29;;;;;;;2.67;0.70;;;7.10;99.90;;;;;;6290196;22;20065;-86
2021/12/19 10:52:01;;;;;;;2.20;0.82;;;7.20;99.90;;;;;;6316366;22;20476;-86
2021/12/19 10:54:30;;;;;;;2.40;0.93;;;7.20;99.90;;;;;;6264525;22;20013;-86
2021/12/19 10:57:06;;;;;;;0.80;0.38;;;7.20;99.90;;;;;;6263481;22;20017;-85
2021/12/19 10:59:34;;;;;;;1.05;0.82;;;7.20;99.90;;;;;;6290096;22;20013;-86
2021/12/19 11:01:59;;;;;;;1.48;0.77;;;7.20;99.90;;;;;;6289068;22;20077;-86
2021/12/19 11:04:25;;;;;;;0.35;0.35;;;7.20;99.90;;;;;;6287680;22;20016;-86
2021/12/19 11:06:54;;;;;;;0.30;0.30;;;7.20;99.90;;;;;;6288747;22;20457;-86
2021/12/19 11:09:22;;;;;;;0.55;0.47;;;7.20;99.90;;;;;;6158806;22;20044;-86
2021/12/19 11:12:00;;;;;;;1.60;0.35;;;7.20;99.90;;;;;;6158926;23;20054;-86
2021/12/19 11:14:39;;;;;;;0.88;0.57;;;7.20;99.90;;;;;;6289228;22;20019;-86
2021/12/19 11:17:09;;;;;;;0.88;0.82;;;7.20;99.90;;;;;;6288983;22;20016;-86
2021/12/19 11:19:36;;;;;;;5.13;0.50;;;7.20;99.90;;;;;;6315542;22;20028;-86
2021/12/19 11:22:02;;;;;;;1.63;0.93;;;7.30;99.90;;;;;;6285123;22;20020;-86
2021/12/19 11:24:28;;;;;;;0.30;0.30;;;7.80;99.90;;;;;;6283316;22;20024;-86
2021/12/19 11:26:57;;;;;;;4.68;1.17;;;7.30;99.90;;;;;;6311204;22;20028;-86
2021/12/19 11:29:23;;;;;;;2.85;0.95;;;7.30;99.90;;;;;;6287892;22;20380;-86
2021/12/19 11:31:57;;;;;;;1.95;1.00;;;7.30;99.90;;;;;;6287178;22;20021;-86
2021/12/19 11:34:56;;;;;;;0.57;0.57;;;7.30;99.90;;;;;;6313937;22;20013;-86
2021/12/19 11:37:42;;;;;;;4.28;0.88;;;7.30;99.90;;;;;;6313888;22;20020;-87
2021/12/19 11:40:09;;;;;;;3.58;2.13;;;7.30;99.90;;;;;;6158241;22;20445;-86
2021/12/19 11:42:37;;;;;;;0.85;0.45;;;7.30;99.90;;;;;;6287882;22;20024;-86
2021/12/19 11:45:40;;;;;;;1.48;0.82;;;7.30;99.90;;;;;;6313462;22;20070;-86
2021/12/19 11:50:56;;;;;;;4.13;0.95;;;7.40;99.90;;;;;;6312556;22;20024;-86
2021/12/19 11:53:22;;;;;;;0.90;0.70;;;7.40;99.90;;;;;;6283593;22;20017;-86
2021/12/19 11:55:49;;;;;;;1.50;0.90;;;7.40;99.90;;;;;;6286597;22;20023;-86
2021/12/19 11:58:18;;;;;;;1.20;0.85;;;7.40;99.90;;;;;;6313939;22;20016;-86
2021/12/19 12:00:56;;;;;;;2.03;0.80;;;7.40;99.90;;;;;;6284638;22;20342;-86
2021/12/19 12:03:24;;;;;;;7.32;2.25;;;7.40;99.90;;;;;;6287855;22;20031;-86
2021/12/19 12:06:21;;;;;;;3.95;1.10;;;7.40;99.90;;;;;;6286750;22;20020;-87
2021/12/19 12:09:07;;;;;;;4.57;1.45;;;7.40;99.90;;;;;;6286862;22;20029;-86
2021/12/19 12:11:35;;;;;;;0.60;0.30;;;7.40;99.90;;;;;;6157574;22;20064;-87
2021/12/19 12:14:22;;;;;;;5.93;1.33;;;7.40;99.90;;;;;;6314050;22;20327;-86
2021/12/19 12:16:57;;;;;;;3.38;0.98;;;7.40;99.90;;;;;;6313759;22;20008;-86
2021/12/19 12:19:48;;;;;;;4.50;1.77;;;7.40;99.90;;;;;;6288562;22;20089;-86
2021/12/19 12:22:37;;;;;;;4.82;1.23;;;7.40;99.90;;;;;;6310632;22;20043;-86
2021/12/19 12:25:15;;;;;;;6.45;3.15;;;7.40;99.90;;;;;;6312804;22;20023;-86
2021/12/19 12:27:55;;;;;;;2.53;0.95;;;7.40;99.90;;;;;;6315130;22;20012;-86
2021/12/19 12:30:27;;;;;;;1.17;0.55;;;7.40;99.90;;;;;;6288391;22;20012;-86
2021/12/19 12:32:55;;;;;;;9.07;1.88;;;7.40;99.90;;;;;;6287675;22;20009;-87
2021/12/19 12:35:21;;;;;;;5.90;1.85;;;7.40;99.90;;;;;;6313950;22;20021;-86
2021/12/19 12:37:48;;;;;;;2.50;0.90;;;7.50;99.90;;;;;;6288048;22;20092;-87
2021/12/19 12:40:33;;;;;;;0.93;0.50;;;7.40;99.90;;;;;;6287602;22;20021;-87
2021/12/19 12:43:08;;;;;;;1.95;0.65;;;7.50;99.90;;;;;;6288618;22;20099;-87
2021/12/19 12:46:13;;;;;;;4.53;0.90;;;7.50;99.90;;;;;;6288242;22;20021;-87
2021/12/19 12:49:07;;;;;;;1.20;0.38;;;7.50;99.90;;;;;;6290063;22;20021;-87
2021/12/19 12:51:46;;;;;;;0.90;0.77;;;7.50;99.90;;;;;;6159070;22;20013;-87
2021/12/19 12:54:21;;;;;;;1.50;0.65;;;7.50;99.90;;;;;;6289480;22;20016;-87
2021/12/19 12:56:50;;;;;;;1.55;1.02;;;7.50;99.90;;;;;;6287409;22;20028;-87
2021/12/19 12:59:17;;;;;;;3.15;0.70;;;7.50;99.90;;;;;;6289930;22;20027;-87
2021/12/19 13:01:53;;;;;;;0.75;0.60;;;7.50;99.90;;;;;;6290277;22;20027;-87
2021/12/19 13:04:20;;;;;;;;;;;7.50;99.90;;;;;;6290298;22;20157;-87
2021/12/19 13:06:53;;;;;;;0.32;0.32;;;7.50;99.90;;;;;;6159218;23;19915;-87
2021/12/19 13:09:42;;;;;;;15.13;0.55;;;7.50;99.90;;;;;;6291225;22;20019;-87
2021/12/19 13:12:20;;;;;;;2.20;0.80;;;7.50;99.90;;;;;;6290459;22;20014;-87
2021/12/19 13:14:57;;;;;;;1.95;0.80;;;7.50;99.90;;;;;;6290365;22;20069;-87
2021/12/19 13:17:29;;;;;;;7.78;0.77;;;7.50;99.90;;;;;;6316282;22;20024;-88
2021/12/19 13:20:05;;;;;;;3.22;1.80;;;7.50;99.90;;;;;;6316217;22;20306;-87
2021/12/19 13:22:35;;;;;;;5.88;0.95;;;7.50;99.90;;;;;;6159507;23;20020;-87
2021/12/19 13:25:16;;;;;;;1.63;0.50;;;7.50;99.90;;;;;;6290043;22;20068;-87
2021/12/19 13:27:50;;;;;;;11.63;1.90;;;7.50;99.90;;;;;;6290729;22;20141;-87
2021/12/19 13:30:24;;;;;;;8.35;0.52;;;7.50;99.90;;;;;;6290200;22;20023;-87
2021/12/19 13:32:50;;;;;;;3.95;0.68;;;7.50;99.90;;;;;;6288446;22;20024;-87
2021/12/19 13:35:33;;;;;;;4.07;1.02;;;7.50;99.90;;;;;;6315585;22;20013;-86
2021/12/19 13:38:09;;;;;;;2.28;0.40;;;7.50;99.90;;;;;;6286951;22;20031;-87
2021/12/19 13:40:38;;;;;;;0.65;0.50;;;7.50;99.90;;;;;;6289463;22;20017;-87
2021/12/19 13:43:12;;;;;;;1.45;1.10;;;7.50;99.90;;;;;;6289909;22;20417;-87
2021/12/19 13:45:48;;;;;;;5.85;1.15;;;7.50;99.90;;;;;;6289135;22;20019;-86
2021/12/19 13:48:38;;;;;;;16.63;1.15;;;7.50;99.90;;;;;;6290137;22;20017;-87
2021/12/19 13:51:05;;;;;;;10.68;2.80;;;7.50;99.90;;;;;;6289420;22;20045;-87
2021/12/19 13:53:33;;;;;;;1.02;0.57;;;7.50;99.90;;;;;;6184050;22;20012;-86
2021/12/19 13:56:11;;;;;;;2.92;0.80;;;7.50;99.90;;;;;;6158961;22;20017;-87
2021/12/19 13:58:39;;;;;;;8.90;2.00;;;7.40;99.90;;;;;;6289115;22;20091;-87
2021/12/19 14:01:18;;;;;;;0.68;0.60;;;7.40;99.90;;;;;;6289460;22;20020;-87
2021/12/19 14:03:54;;;;;;;0.90;0.70;;;7.50;99.90;;;;;;6289935;22;20013;-87
2021/12/19 14:06:25;;;;;;;0.43;0.43;;;7.50;99.90;;;;;;6289206;22;20024;-87
2021/12/19 14:08:54;;;;;;;3.22;0.30;;;7.40;99.90;;;;;;6290309;22;20017;-87
2021/12/19 14:11:22;;;;;;;0.30;0.30;;;7.50;99.90;;;;;;6289641;22;20324;-87
2021/12/19 14:14:41;;;;;;;1.08;0.55;;;7.50;99.90;;;;;;6289571;22;20445;-87
2021/12/19 14:16:47;;;;;;;6.40;0.93;;;7.50;99.90;;;;;;6302407;22;20073;-87